Giddyap — WDF7334 — position and weather

sailwx.info

Track history (hours):
 
Tides and Currents Weather Stations Pressure Air Temp Water Temp Dewpoint Dewpoint Depression Visibility Wind Speed Wind Dir Waves Ship Positions

Giddyap

Owner: Giddyap LLC, Palm Beach, FL. More information available from US FCC via Universal Licensing System and Coast Guard Vessel Documentation Center.

Last reported at 2016-Feb-07 22:31 UTC. Time now 2016-Feb-07 23:26 UTC.
Position N 25°46' W 080°08'.

Length 25 m.

Type: Pleasure craft. MMSI: 367483440.

Date/timePositionNaut miles runAvg speedWind from/ knotsBaromVisibWave heightAir tempDewpointWater temp
2016-Feb-07 22:31N 25°46' W 080°08'0 0.0
2016-Feb-07 21:31N 25°46' W 080°08'0 0.0
2016-Feb-07 20:31N 25°46' W 080°08'0 0.0
2016-Feb-07 19:31N 25°46' W 080°08'0 0.0
2016-Feb-07 18:31N 25°46' W 080°08'7 6.9
2016-Feb-07 17:34N 25°53' W 080°06'1313.2
2016-Feb-07 16:33N 26°06' W 080°07'3 2.4
2016-Feb-07 15:29N 26°08' W 080°07'0 0.0
2016-Feb-07 14:29N 26°08' W 080°07'0 0.0
2016-Feb-07 13:32N 26°08' W 080°07'0 0.0
2016-Feb-06 22:30N 26°08' W 080°07'0 0.0
2016-Feb-06 21:27N 26°08' W 080°07'3 3.4
2016-Feb-06 20:33N 26°11' W 080°06'4 4.1
2016-Feb-06 19:31N 26°16' W 080°05'41 1.6
2016-Feb-05 18:33N 26°56' W 080°05'  
Track history (hours):
 
Tides and Currents Weather Stations Pressure Air Temp Water Temp Dewpoint Dewpoint Depression Visibility Wind Speed Wind Dir Waves Ship Positions

Giddyap

Owner: Giddyap LLC, Palm Beach, FL. More information available from US FCC via Universal Licensing System and Coast Guard Vessel Documentation Center.

Last reported at 2016-Feb-07 22:31 UTC. Time now 2016-Feb-07 23:26 UTC.
Position N 25°46' W 080°08'.

Length 25 m.

Type: Pleasure craft. MMSI: 367483440.

Date/timePositionNaut miles runAvg speedWind from/ knotsBaromVisibWave heightAir tempDewpointWater temp
2016-Feb-07 22:31N 25°46' W 080°08'0 0.0
2016-Feb-07 21:31N 25°46' W 080°08'0 0.0
2016-Feb-07 20:31N 25°46' W 080°08'0 0.0
2016-Feb-07 19:31N 25°46' W 080°08'0 0.0
2016-Feb-07 18:31N 25°46' W 080°08'7 6.9
2016-Feb-07 17:34N 25°53' W 080°06'1313.2
2016-Feb-07 16:33N 26°06' W 080°07'3 2.4
2016-Feb-07 15:29N 26°08' W 080°07'0 0.0
2016-Feb-07 14:29N 26°08' W 080°07'0 0.0
2016-Feb-07 13:32N 26°08' W 080°07'0 0.0
2016-Feb-06 22:30N 26°08' W 080°07'0 0.0
2016-Feb-06 21:27N 26°08' W 080°07'3 3.4
2016-Feb-06 20:33N 26°11' W 080°06'4 4.1
2016-Feb-06 19:31N 26°16' W 080°05'41 1.6
2016-Feb-05 18:33N 26°56' W 080°05'  

Dump ship's entire track history